Time;durP1;ratioP1;P1;durP2;ratioP2;P2;SDS_P1;SDS_P2;PMS_P1;PMS_P2;Temp;Humidity;BMP_temperature;BMP_pressure;BME280_temperature;BME280_humidity;BME280_pressure;Samples;Min_cycle;Max_cycle;Signal;HPM_P1;HPM_P2
2021/12/16 00:08:17;;;;;;;39.30;14.88;;;;;;;;;;5111366;28;20055;-82
2021/12/16 00:10:52;;;;;;;40.38;15.50;;;;;;;;;;5111095;28;20047;-83
2021/12/16 00:34:49;;;;;;;45.47;18.52;;;;;;;;;;5111212;28;20138;-77
2021/12/16 00:37:15;;;;;;;48.55;18.95;;;;;;;;;;5094314;28;20177;-77
2021/12/16 00:39:44;;;;;;;52.28;19.45;;;;;;;;;;5111087;28;20449;-78
2021/12/16 00:42:20;;;;;;;52.00;20.08;;;;;;;;;;5110312;28;20047;-78
2021/12/16 00:45:04;;;;;;;58.50;21.10;;;;;;;;;;5110755;28;20043;-77
2021/12/16 00:47:47;;;;;;;45.88;19.50;;;;;;;;;;5110532;28;20119;-77
2021/12/16 00:54:09;;;;;;;57.58;19.67;;;;;;;;;;5110431;28;20044;-77
2021/12/16 00:55:56;;;;;;;51.25;18.50;;;;;;;;;;5110305;28;20047;-78
2021/12/16 00:58:26;;;;;;;45.75;19.10;;;;;;;;;;5110307;28;20051;-77
2021/12/16 01:01:01;;;;;;;44.30;20.30;;;;;;;;;;5093069;28;20035;-77
2021/12/16 01:03:36;;;;;;;55.15;20.75;;;;;;;;;;5110234;28;20077;-77
2021/12/16 01:36:06;;;;;;;48.67;18.73;;;;;;;;;;5109873;28;20035;-77
2021/12/16 01:39:04;;;;;;;49.85;19.92;;;;;;;;;;5109850;28;20043;-77
2021/12/16 01:46:46;;;;;;;52.67;18.98;;;;;;;;;;5109817;28;20394;-78
2021/12/16 01:57:03;;;;;;;54.63;18.98;;;;;;;;;;5109454;28;20043;-77
2021/12/16 01:59:35;;;;;;;47.17;18.23;;;;;;;;;;5109524;28;20449;-82
2021/12/16 02:02:12;;;;;;;41.83;17.63;;;;;;;;;;5108869;28;20039;-83
2021/12/16 02:04:54;;;;;;;46.17;18.10;;;;;;;;;;5092159;28;20036;-77
2021/12/16 02:07:45;;;;;;;51.53;18.15;;;;;;;;;;5109171;28;20043;-78
2021/12/16 02:10:11;;;;;;;41.97;18.00;;;;;;;;;;5108911;28;20051;-77
2021/12/16 02:29:20;;;;;;;37.08;15.80;;;;;;;;;;5108540;28;20049;-75
2021/12/16 02:32:01;;;;;;;39.30;15.90;;;;;;;;;;5077590;28;20040;-80
2021/12/16 02:35:26;;;;;;;40.42;16.48;;;;;;;;;;5108811;28;20047;-75
2021/12/16 02:37:19;;;;;;;43.38;16.33;;;;;;;;;;5094237;28;20051;-75
2021/12/16 02:39:46;;;;;;;36.67;16.10;;;;;;;;;;5126900;27;20051;-75
2021/12/16 02:42:17;;;;;;;37.63;16.90;;;;;;;;;;5108112;28;20072;-75
2021/12/16 02:50:02;;;;;;;41.65;15.60;;;;;;;;;;5107976;28;20051;-75
2021/12/16 02:52:29;;;;;;;39.00;16.25;;;;;;;;;;5091179;28;20047;-75
2021/12/16 02:54:55;;;;;;;41.45;16.55;;;;;;;;;;5094800;28;20044;-74
2021/12/16 02:57:22;;;;;;;35.38;15.95;;;;;;;;;;5088429;28;20430;-74
2021/12/16 02:59:50;;;;;;;41.03;16.45;;;;;;;;;;5071912;28;20036;-74
2021/12/16 03:02:18;;;;;;;38.97;16.08;;;;;;;;;;5082319;28;20040;-75
2021/12/16 03:04:47;;;;;;;39.13;15.63;;;;;;;;;;5109055;28;20036;-75
2021/12/16 03:07:15;;;;;;;36.17;15.48;;;;;;;;;;5106996;28;20105;-75
2021/12/16 03:15:29;;;;;;;40.88;15.57;;;;;;;;;;5108075;28;20043;-75
2021/12/16 03:18:07;;;;;;;36.13;15.25;;;;;;;;;;5108350;28;20457;-75
2021/12/16 03:20:54;;;;;;;42.17;15.85;;;;;;;;;;5092095;28;20039;-75
2021/12/16 03:38:53;;;;;;;39.00;15.07;;;;;;;;;;5112436;28;20118;-75
2021/12/16 03:41:20;;;;;;;39.10;15.55;;;;;;;;;;5112460;28;20448;-75
2021/12/16 03:43:47;;;;;;;35.88;15.63;;;;;;;;;;5111766;28;20032;-80
2021/12/16 03:46:27;;;;;;;35.25;15.85;;;;;;;;;;5111652;28;20365;-80
2021/12/16 03:49:06;;;;;;;33.63;15.15;;;;;;;;;;5094871;28;20553;-80
2021/12/16 03:51:34;;;;;;;36.90;15.63;;;;;;;;;;5111890;28;20482;-81
2021/12/16 03:54:03;;;;;;;39.10;16.83;;;;;;;;;;5094444;28;20040;-80
2021/12/16 03:56:30;;;;;;;35.88;15.38;;;;;;;;;;5111653;28;20043;-80
2021/12/16 03:58:56;;;;;;;41.20;15.80;;;;;;;;;;5111919;28;20100;-80
2021/12/16 04:01:24;;;;;;;34.80;15.70;;;;;;;;;;5111907;28;20118;-80
2021/12/16 04:03:51;;;;;;;36.50;15.85;;;;;;;;;;5094483;28;20035;-80
2021/12/16 04:06:18;;;;;;;33.55;14.90;;;;;;;;;;5113076;28;20122;-79
2021/12/16 04:08:44;;;;;;;34.78;15.35;;;;;;;;;;5111512;28;20479;-80
2021/12/16 04:11:18;;;;;;;34.33;15.55;;;;;;;;;;5128613;27;20050;-80
2021/12/16 04:13:56;;;;;;;44.58;15.98;;;;;;;;;;5111551;28;20094;-80
2021/12/16 04:16:30;;;;;;;40.13;16.20;;;;;;;;;;5111764;28;20419;-80
2021/12/16 04:18:57;;;;;;;37.55;15.88;;;;;;;;;;5094214;28;20048;-80
2021/12/16 04:21:26;;;;;;;39.78;16.17;;;;;;;;;;5094111;28;20046;-80
2021/12/16 04:23:53;;;;;;;39.70;15.85;;;;;;;;;;5111032;28;20043;-81
2021/12/16 04:26:19;;;;;;;38.28;16.40;;;;;;;;;;5111593;28;20567;-80
2021/12/16 04:28:46;;;;;;;38.05;16.45;;;;;;;;;;5111047;28;20096;-80
2021/12/16 04:31:12;;;;;;;35.63;16.20;;;;;;;;;;5110783;28;20051;-80
2021/12/16 04:33:39;;;;;;;35.88;15.73;;;;;;;;;;5093757;28;20044;-80
2021/12/16 04:36:09;;;;;;;43.22;16.58;;;;;;;;;;5110576;28;20054;-80
2021/12/16 04:38:36;;;;;;;41.50;16.35;;;;;;;;;;5111066;28;20035;-80
2021/12/16 04:41:02;;;;;;;40.47;15.77;;;;;;;;;;5110956;28;20387;-80
2021/12/16 04:43:38;;;;;;;40.60;17.27;;;;;;;;;;5111109;28;20497;-80
2021/12/16 04:46:05;;;;;;;48.08;17.38;;;;;;;;;;5110596;28;20043;-80
2021/12/16 04:48:31;;;;;;;45.58;17.27;;;;;;;;;;5093642;28;20050;-75
2021/12/16 04:50:57;;;;;;;42.65;16.65;;;;;;;;;;5110689;28;20047;-75
2021/12/16 04:53:23;;;;;;;43.90;15.88;;;;;;;;;;5077134;28;20035;-75
2021/12/16 04:55:50;;;;;;;39.95;16.83;;;;;;;;;;5093328;28;20039;-75
2021/12/16 04:58:16;;;;;;;46.17;17.52;;;;;;;;;;5110781;28;20043;-75
2021/12/16 05:00:42;;;;;;;41.85;16.90;;;;;;;;;;5110924;28;20482;-75
2021/12/16 05:03:08;;;;;;;40.35;16.33;;;;;;;;;;5093262;28;20036;-75
2021/12/16 05:05:34;;;;;;;38.58;16.73;;;;;;;;;;5110789;28;20501;-75
2021/12/16 05:08:00;;;;;;;40.08;16.98;;;;;;;;;;5110547;28;20043;-75
2021/12/16 05:10:27;;;;;;;40.28;17.17;;;;;;;;;;5093372;28;20130;-75
2021/12/16 05:12:58;;;;;;;41.50;17.45;;;;;;;;;;5110179;28;20504;-75
2021/12/16 05:15:30;;;;;;;45.03;17.10;;;;;;;;;;5093573;28;20487;-76
2021/12/16 05:17:58;;;;;;;42.63;16.55;;;;;;;;;;5093091;28;20044;-75
2021/12/16 05:20:27;;;;;;;43.90;17.48;;;;;;;;;;5093460;28;20503;-75
2021/12/16 05:28:16;;;;;;;43.08;17.52;;;;;;;;;;5110123;28;20047;-75
2021/12/16 05:30:42;;;;;;;39.78;16.92;;;;;;;;;;5109996;28;20043;-75
2021/12/16 05:33:09;;;;;;;39.92;16.55;;;;;;;;;;5110055;28;20040;-75
2021/12/16 05:35:36;;;;;;;44.10;17.67;;;;;;;;;;5111113;28;20044;-75
2021/12/16 05:38:02;;;;;;;43.63;16.17;;;;;;;;;;5109445;28;20035;-75
2021/12/16 05:40:29;;;;;;;46.42;16.33;;;;;;;;;;5109795;28;20098;-75
2021/12/16 05:42:56;;;;;;;49.13;17.20;;;;;;;;;;5109517;28;20376;-75
2021/12/16 05:45:23;;;;;;;46.80;17.45;;;;;;;;;;5110297;28;20044;-80
2021/12/16 05:47:51;;;;;;;47.17;18.15;;;;;;;;;;5109610;28;20089;-80
2021/12/16 05:50:17;;;;;;;47.55;18.00;;;;;;;;;;5109957;28;20051;-80
2021/12/16 05:52:44;;;;;;;52.17;18.83;;;;;;;;;;5109844;28;20490;-80
2021/12/16 05:55:11;;;;;;;52.95;19.50;;;;;;;;;;5108541;28;20449;-80
2021/12/16 05:57:38;;;;;;;47.35;17.55;;;;;;;;;;5109402;28;20035;-75
2021/12/16 06:00:08;;;;;;;51.92;19.10;;;;;;;;;;5110495;28;20040;-75
2021/12/16 06:02:34;;;;;;;52.08;18.67;;;;;;;;;;5109783;28;20497;-80
2021/12/16 06:05:00;;;;;;;51.13;18.00;;;;;;;;;;5109207;28;20051;-80
2021/12/16 06:07:26;;;;;;;55.58;18.98;;;;;;;;;;5126689;27;20092;-75
2021/12/16 06:09:52;;;;;;;41.35;17.80;;;;;;;;;;5109335;28;20068;-80
2021/12/16 06:12:18;;;;;;;44.35;18.75;;;;;;;;;;5109536;28;20042;-80
2021/12/16 06:15:13;;;;;;;49.63;18.88;;;;;;;;;;5109389;28;20036;-80
2021/12/16 06:28:34;;;;;;;45.15;16.60;;;;;;;;;;5109151;28;20487;-75
2021/12/16 06:31:00;;;;;;;53.70;18.02;;;;;;;;;;5108916;28;20055;-75
2021/12/16 06:33:26;;;;;;;57.75;18.13;;;;;;;;;;5108953;28;20048;-75
2021/12/16 06:35:53;;;;;;;55.47;18.77;;;;;;;;;;5110063;28;20120;-77
2021/12/16 06:38:20;;;;;;;45.67;17.65;;;;;;;;;;5109037;28;20509;-78
2021/12/16 06:40:47;;;;;;;41.25;16.15;;;;;;;;;;5109004;28;20476;-78
2021/12/16 06:43:15;;;;;;;48.70;19.23;;;;;;;;;;5108457;28;20035;-77
2021/12/16 06:45:45;;;;;;;53.25;17.27;;;;;;;;;;5109022;28;20051;-78
2021/12/16 06:48:16;;;;;;;50.80;16.75;;;;;;;;;;5091922;28;20507;-77
2021/12/16 06:51:05;;;;;;;49.83;16.95;;;;;;;;;;5093072;28;20491;-78
2021/12/16 06:53:50;;;;;;;62.80;16.83;;;;;;;;;;5108712;28;20132;-82
2021/12/16 06:59:19;;;;;;;60.33;18.27;;;;;;;;;;5100440;28;20090;-80
2021/12/16 07:01:59;;;;;;;63.65;19.70;;;;;;;;;;5109077;28;20047;-80
2021/12/16 07:04:25;;;;;;;73.07;19.90;;;;;;;;;;5108898;28;20101;-80
2021/12/16 07:06:51;;;;;;;62.45;18.80;;;;;;;;;;5109764;28;20055;-80
2021/12/16 07:09:19;;;;;;;83.18;20.83;;;;;;;;;;5113642;28;20483;-80
2021/12/16 07:11:47;;;;;;;84.45;20.50;;;;;;;;;;5113912;28;20048;-83
2021/12/16 07:14:16;;;;;;;94.93;20.38;;;;;;;;;;5113300;28;20538;-81
2021/12/16 07:16:43;;;;;;;87.05;22.15;;;;;;;;;;5113032;28;20188;-83
2021/12/16 07:19:09;;;;;;;86.80;20.73;;;;;;;;;;5112857;28;20118;-80
2021/12/16 07:21:37;;;;;;;70.28;20.42;;;;;;;;;;5114662;28;20435;-81
2021/12/16 07:24:05;;;;;;;65.35;19.83;;;;;;;;;;5112893;28;20043;-81
2021/12/16 07:26:31;;;;;;;92.28;21.75;;;;;;;;;;5095814;28;20387;-82
2021/12/16 07:28:57;;;;;;;102.70;21.92;;;;;;;;;;5112581;28;20059;-76
2021/12/16 07:31:23;;;;;;;106.63;23.73;;;;;;;;;;5112514;28;20043;-76
2021/12/16 07:33:49;;;;;;;130.60;23.52;;;;;;;;;;5130148;27;20047;-76
2021/12/16 07:36:18;;;;;;;154.60;23.60;;;;;;;;;;5112221;28;20554;-76
2021/12/16 07:38:45;;;;;;;163.02;23.90;;;;;;;;;;5096088;28;20062;-76
2021/12/16 07:41:12;;;;;;;126.45;22.98;;;;;;;;;;5111906;28;20118;-75
2021/12/16 07:46:19;;;;;;;162.45;24.65;;;;;;;;;;5112431;28;20100;-76
2021/12/16 07:48:45;;;;;;;125.35;23.95;;;;;;;;;;5112200;28;20039;-81
2021/12/16 07:51:12;;;;;;;134.38;23.75;;;;;;;;;;5111814;28;20054;-76
2021/12/16 07:53:38;;;;;;;152.82;24.38;;;;;;;;;;5112066;28;20048;-76
2021/12/16 07:56:05;;;;;;;152.45;23.70;;;;;;;;;;5111639;28;20047;-77
2021/12/16 07:58:31;;;;;;;77.85;20.90;;;;;;;;;;5112314;28;20530;-77
2021/12/16 08:00:58;;;;;;;127.68;21.85;;;;;;;;;;5111782;28;20392;-76
2021/12/16 08:03:26;;;;;;;96.15;20.55;;;;;;;;;;5112100;28;20138;-77
2021/12/16 08:05:54;;;;;;;162.13;22.73;;;;;;;;;;5111716;28;20046;-77
2021/12/16 08:08:21;;;;;;;116.07;21.58;;;;;;;;;;5111815;28;20089;-76
2021/12/16 08:10:47;;;;;;;143.93;22.95;;;;;;;;;;5112919;28;20035;-76
2021/12/16 08:13:14;;;;;;;137.73;20.90;;;;;;;;;;5111320;28;20036;-76
2021/12/16 08:15:40;;;;;;;136.63;21.98;;;;;;;;;;5112111;28;20608;-77
2021/12/16 08:18:06;;;;;;;66.07;18.33;;;;;;;;;;5110409;28;20089;-76
2021/12/16 08:20:33;;;;;;;121.93;20.20;;;;;;;;;;5093985;28;20043;-76
2021/12/16 08:23:00;;;;;;;123.47;20.80;;;;;;;;;;5110888;28;20035;-76
2021/12/16 08:25:27;;;;;;;70.95;17.42;;;;;;;;;;5110971;28;20056;-76
2021/12/16 08:27:54;;;;;;;124.70;20.35;;;;;;;;;;5111356;28;20056;-76
2021/12/16 08:30:22;;;;;;;87.25;18.02;;;;;;;;;;5111544;28;20049;-76
2021/12/16 08:32:48;;;;;;;96.60;19.15;;;;;;;;;;5112943;28;20546;-76
2021/12/16 08:35:15;;;;;;;89.30;18.83;;;;;;;;;;5094295;28;20499;-76
2021/12/16 08:37:41;;;;;;;106.50;19.73;;;;;;;;;;5111683;28;20135;-76
2021/12/16 08:40:10;;;;;;;129.75;20.02;;;;;;;;;;5111417;28;20559;-76
2021/12/16 08:42:37;;;;;;;79.78;18.25;;;;;;;;;;5111866;28;20482;-76
2021/12/16 08:45:04;;;;;;;58.85;17.20;;;;;;;;;;5093741;28;20080;-76
2021/12/16 08:47:31;;;;;;;67.80;17.83;;;;;;;;;;5094784;28;20039;-81
2021/12/16 08:49:57;;;;;;;98.05;19.45;;;;;;;;;;5094230;28;20039;-81
2021/12/16 08:52:23;;;;;;;88.93;18.88;;;;;;;;;;5111417;28;20086;-82
2021/12/16 08:54:50;;;;;;;78.95;18.83;;;;;;;;;;5094443;28;20447;-82
2021/12/16 08:57:16;;;;;;;79.60;18.95;;;;;;;;;;5112165;28;20513;-82
2021/12/16 08:59:43;;;;;;;73.00;18.80;;;;;;;;;;5111606;28;20043;-82
2021/12/16 09:02:09;;;;;;;94.80;19.77;;;;;;;;;;5110902;28;20051;-76
2021/12/16 09:04:37;;;;;;;69.13;19.02;;;;;;;;;;5093662;28;20050;-76
2021/12/16 09:07:04;;;;;;;94.93;20.30;;;;;;;;;;5110181;28;20053;-76
2021/12/16 09:09:33;;;;;;;75.88;19.45;;;;;;;;;;5093553;28;20043;-76
2021/12/16 09:12:12;;;;;;;74.20;17.88;;;;;;;;;;5110545;28;20057;-82
2021/12/16 09:14:39;;;;;;;87.53;18.63;;;;;;;;;;5110823;28;20618;-77
2021/12/16 09:17:09;;;;;;;83.55;18.13;;;;;;;;;;5109926;28;20040;-76
2021/12/16 09:19:37;;;;;;;97.15;19.30;;;;;;;;;;5110484;28;20048;-82
2021/12/16 09:22:03;;;;;;;72.47;17.63;;;;;;;;;;5111714;28;20036;-82
2021/12/16 09:24:29;;;;;;;106.35;20.25;;;;;;;;;;5110980;28;20039;-82
2021/12/16 09:26:55;;;;;;;79.30;18.42;;;;;;;;;;5093490;28;20475;-82
2021/12/16 09:29:21;;;;;;;57.80;17.63;;;;;;;;;;5110685;28;20044;-82
2021/12/16 09:31:48;;;;;;;61.92;17.75;;;;;;;;;;5089021;28;20066;-82
2021/12/16 09:34:14;;;;;;;54.08;18.25;;;;;;;;;;5072748;28;20411;-82
2021/12/16 09:36:41;;;;;;;55.85;16.73;;;;;;;;;;5090036;28;20087;-82
2021/12/16 09:39:08;;;;;;;44.95;16.40;;;;;;;;;;5089418;28;20052;-76
2021/12/16 09:41:34;;;;;;;54.05;16.23;;;;;;;;;;5089141;28;20127;-76
2021/12/16 09:44:01;;;;;;;58.20;15.25;;;;;;;;;;5089252;28;20526;-76
2021/12/16 09:46:28;;;;;;;45.90;15.23;;;;;;;;;;5089638;28;20052;-76
2021/12/16 09:48:56;;;;;;;40.58;15.73;;;;;;;;;;5073015;28;20499;-76
2021/12/16 09:51:32;;;;;;;45.45;15.68;;;;;;;;;;5087178;27;20191;-75
2021/12/16 09:54:01;;;;;;;57.20;16.23;;;;;;;;;;5085534;28;20049;-75
2021/12/16 09:56:28;;;;;;;43.45;14.80;;;;;;;;;;5085797;28;20062;-75
2021/12/16 09:58:55;;;;;;;59.58;15.43;;;;;;;;;;5085588;28;20119;-75
2021/12/16 10:01:23;;;;;;;66.00;13.95;;;;;;;;;;5085235;28;20105;-75
2021/12/16 10:03:50;;;;;;;50.17;14.20;;;;;;;;;;5069433;28;20526;-75
2021/12/16 10:06:17;;;;;;;51.15;14.18;;;;;;;;;;5085297;28;20118;-75
2021/12/16 10:08:44;;;;;;;55.33;14.25;;;;;;;;;;5085487;28;20089;-81
2021/12/16 10:11:11;;;;;;;62.40;15.13;;;;;;;;;;5067946;28;20048;-75
2021/12/16 10:13:45;;;;;;;75.63;15.20;;;;;;;;;;5069202;28;20647;-75
2021/12/16 10:18:38;;;;;;;88.63;15.43;;;;;;;;;;5085562;28;20044;-76
2021/12/16 10:21:05;;;;;;;87.78;15.23;;;;;;;;;;5085133;28;20071;-76
2021/12/16 10:23:34;;;;;;;120.03;16.52;;;;;;;;;;5085285;28;20076;-76
2021/12/16 10:26:04;;;;;;;95.30;16.85;;;;;;;;;;5068044;28;20070;-76
2021/12/16 10:28:32;;;;;;;111.82;16.27;;;;;;;;;;5085099;28;20123;-76
2021/12/16 10:31:02;;;;;;;167.70;18.10;;;;;;;;;;5085161;28;20097;-76
2021/12/16 10:33:28;;;;;;;129.60;16.92;;;;;;;;;;5068812;28;20616;-76
2021/12/16 10:36:05;;;;;;;153.98;17.15;;;;;;;;;;5085570;28;20056;-75
2021/12/16 10:38:34;;;;;;;137.48;17.20;;;;;;;;;;5085132;28;20041;-76
2021/12/16 10:41:00;;;;;;;163.65;16.75;;;;;;;;;;5085074;28;20380;-76
2021/12/16 10:43:26;;;;;;;209.68;17.88;;;;;;;;;;5068199;28;20131;-76
2021/12/16 10:46:01;;;;;;;109.10;15.82;;;;;;;;;;5085014;28;20048;-76
2021/12/16 10:48:34;;;;;;;119.93;17.60;;;;;;;;;;5085077;28;20373;-76
2021/12/16 10:51:09;;;;;;;67.97;14.77;;;;;;;;;;5084369;28;20152;-81
2021/12/16 10:53:59;;;;;;;108.75;15.93;;;;;;;;;;5085003;28;20067;-81
2021/12/16 10:56:28;;;;;;;119.55;16.83;;;;;;;;;;5067712;28;20094;-81
2021/12/16 10:59:03;;;;;;;194.13;18.63;;;;;;;;;;5067399;28;20040;-76
2021/12/16 11:01:38;;;;;;;130.02;16.80;;;;;;;;;;5061569;28;20050;-81
2021/12/16 11:04:08;;;;;;;119.57;17.67;;;;;;;;;;5070844;28;20048;-76
2021/12/16 11:06:57;;;;;;;136.15;17.73;;;;;;;;;;5071052;28;20067;-76
2021/12/16 11:09:35;;;;;;;104.15;18.08;;;;;;;;;;5048437;28;20052;-81
2021/12/16 11:12:05;;;;;;;101.47;17.67;;;;;;;;;;5053892;28;20036;-81
2021/12/16 11:14:31;;;;;;;125.75;19.23;;;;;;;;;;5071768;28;20468;-75
2021/12/16 11:16:59;;;;;;;153.02;19.67;;;;;;;;;;5070834;28;20040;-77
2021/12/16 11:19:39;;;;;;;112.72;19.75;;;;;;;;;;5070572;28;20041;-77
2021/12/16 11:22:05;;;;;;;59.90;18.15;;;;;;;;;;5070606;28;20404;-77
2021/12/16 11:24:31;;;;;;;106.55;18.90;;;;;;;;;;5054230;28;20495;-82
2021/12/16 11:26:57;;;;;;;132.10;18.15;;;;;;;;;;5071120;28;20499;-82
2021/12/16 11:29:30;;;;;;;116.70;18.15;;;;;;;;;;5053296;28;20058;-82
2021/12/16 11:31:57;;;;;;;88.05;17.10;;;;;;;;;;5071013;28;20481;-82
2021/12/16 11:34:23;;;;;;;63.83;15.35;;;;;;;;;;5070687;28;20490;-82
2021/12/16 11:36:53;;;;;;;126.85;18.00;;;;;;;;;;5070642;28;20040;-82
2021/12/16 11:39:29;;;;;;;125.45;18.83;;;;;;;;;;5053836;28;20037;-82
2021/12/16 11:41:56;;;;;;;97.13;19.08;;;;;;;;;;5070884;28;20048;-82
2021/12/16 11:44:28;;;;;;;88.72;19.02;;;;;;;;;;5070006;28;20492;-82
2021/12/16 11:46:57;;;;;;;48.75;17.60;;;;;;;;;;5054120;28;20155;-82
2021/12/16 11:49:23;;;;;;;99.20;19.30;;;;;;;;;;5069479;28;20389;-82
2021/12/16 11:51:56;;;;;;;84.15;18.25;;;;;;;;;;5070771;28;20118;-76
2021/12/16 11:54:34;;;;;;;65.38;17.75;;;;;;;;;;5069745;28;20037;-77
2021/12/16 11:57:03;;;;;;;78.57;19.10;;;;;;;;;;5070092;28;20047;-76
2021/12/16 11:59:31;;;;;;;48.33;17.48;;;;;;;;;;5070002;28;20036;-82
2021/12/16 12:01:58;;;;;;;60.85;20.42;;;;;;;;;;5070262;28;20488;-82
2021/12/16 12:04:26;;;;;;;54.53;18.95;;;;;;;;;;5069783;28;20093;-82
2021/12/16 12:06:52;;;;;;;51.33;18.98;;;;;;;;;;5069810;28;20040;-82
2021/12/16 12:09:20;;;;;;;59.03;19.65;;;;;;;;;;5052768;28;20089;-82
2021/12/16 12:11:48;;;;;;;83.18;20.20;;;;;;;;;;5070106;28;20051;-82
2021/12/16 12:14:17;;;;;;;72.55;19.60;;;;;;;;;;5068274;28;20095;-82
2021/12/16 12:16:49;;;;;;;54.03;18.45;;;;;;;;;;5070243;28;20614;-82
2021/12/16 12:19:20;;;;;;;68.32;19.27;;;;;;;;;;5069060;28;20107;-82
2021/12/16 12:21:46;;;;;;;57.95;20.05;;;;;;;;;;5053503;28;20041;-83
2021/12/16 12:24:27;;;;;;;88.15;22.60;;;;;;;;;;5069404;28;20048;-82
2021/12/16 12:26:55;;;;;;;90.82;22.42;;;;;;;;;;5070088;28;20036;-82
2021/12/16 12:29:36;;;;;;;85.35;21.45;;;;;;;;;;5069392;28;20186;-82
2021/12/16 12:32:02;;;;;;;66.15;18.83;;;;;;;;;;5049909;28;20045;-82
2021/12/16 12:34:29;;;;;;;66.25;19.00;;;;;;;;;;5033052;28;20103;-77
2021/12/16 12:36:56;;;;;;;62.28;19.40;;;;;;;;;;5049492;28;20037;-76
2021/12/16 12:39:26;;;;;;;63.75;18.95;;;;;;;;;;5048682;28;20045;-76
2021/12/16 12:41:53;;;;;;;60.85;17.88;;;;;;;;;;5032935;28;20047;-76
2021/12/16 12:44:19;;;;;;;57.20;18.35;;;;;;;;;;5048742;28;20083;-77
2021/12/16 12:46:45;;;;;;;77.53;18.27;;;;;;;;;;5032810;28;20419;-76
2021/12/16 12:49:14;;;;;;;74.78;19.65;;;;;;;;;;5048353;28;20099;-77
2021/12/16 12:51:43;;;;;;;64.65;18.05;;;;;;;;;;5032488;28;20263;-82
2021/12/16 12:54:17;;;;;;;65.70;18.73;;;;;;;;;;5031894;28;20037;-82
2021/12/16 12:56:43;;;;;;;65.47;17.40;;;;;;;;;;5048848;28;20048;-83
2021/12/16 12:59:11;;;;;;;64.50;17.67;;;;;;;;;;5031873;28;20485;-82
2021/12/16 13:01:43;;;;;;;56.85;17.17;;;;;;;;;;5048901;28;20108;-83
2021/12/16 13:04:16;;;;;;;48.80;16.42;;;;;;;;;;5048632;28;20076;-82
2021/12/16 13:06:51;;;;;;;57.58;17.08;;;;;;;;;;5031963;28;20041;-82
2021/12/16 13:09:25;;;;;;;57.28;17.80;;;;;;;;;;5048287;28;20041;-82
2021/12/16 13:11:51;;;;;;;56.08;15.65;;;;;;;;;;5032362;28;20595;-82
2021/12/16 13:14:30;;;;;;;67.65;16.30;;;;;;;;;;5031926;28;20106;-82
2021/12/16 13:27:38;;;;;;;49.03;16.75;;;;;;;;;;5048525;28;20144;-82
2021/12/16 13:32:45;;;;;;;50.83;16.80;;;;;;;;;;5068514;28;20044;-76
2021/12/16 13:35:32;;;;;;;53.78;16.80;;;;;;;;;;5068134;28;20052;-82
2021/12/16 13:37:58;;;;;;;44.15;16.17;;;;;;;;;;5051716;28;20036;-82
2021/12/16 13:40:33;;;;;;;54.83;17.67;;;;;;;;;;5068252;28;20526;-82
2021/12/16 13:43:02;;;;;;;62.22;18.30;;;;;;;;;;5068544;28;20137;-83
2021/12/16 13:45:35;;;;;;;62.78;17.77;;;;;;;;;;5068017;28;20049;-82
2021/12/16 14:10:22;;;;;;;83.78;18.10;;;;;;;;;;5067998;28;20053;-76
2021/12/16 14:16:01;;;;;;;104.43;17.90;;;;;;;;;;5067918;28;20054;-76
2021/12/16 14:25:01;;;;;;;55.33;15.38;;;;;;;;;;5068109;28;20056;-76
2021/12/16 14:38:27;;;;;;;81.25;15.00;;;;;;;;;;5071243;28;20391;-82
2021/12/16 14:41:12;;;;;;;104.65;14.57;;;;;;;;;;5058758;28;20109;-82
2021/12/16 14:43:53;;;;;;;88.40;14.75;;;;;;;;;;5055330;28;20137;-77
2021/12/16 14:46:26;;;;;;;94.15;14.82;;;;;;;;;;5054600;28;20040;-76
2021/12/16 14:48:53;;;;;;;44.50;14.10;;;;;;;;;;5054436;28;20059;-76
2021/12/16 14:51:19;;;;;;;87.25;14.32;;;;;;;;;;5070610;28;20178;-83
2021/12/16 14:53:50;;;;;;;61.47;13.52;;;;;;;;;;5054922;28;20048;-82
2021/12/16 14:56:20;;;;;;;68.43;15.45;;;;;;;;;;5070957;28;20131;-77
2021/12/16 14:58:51;;;;;;;75.70;13.38;;;;;;;;;;5071637;28;20492;-76
2021/12/16 15:01:20;;;;;;;97.28;14.50;;;;;;;;;;5071026;28;20489;-77
2021/12/16 15:03:47;;;;;;;93.45;14.68;;;;;;;;;;5071427;28;20442;-76
2021/12/16 15:06:17;;;;;;;106.72;14.75;;;;;;;;;;5070882;28;20516;-82
2021/12/16 15:08:55;;;;;;;122.18;14.93;;;;;;;;;;5071280;28;20123;-82
2021/12/16 15:11:43;;;;;;;84.60;14.75;;;;;;;;;;5070644;28;20122;-76
2021/12/16 15:14:25;;;;;;;136.90;15.15;;;;;;;;;;5070817;28;20446;-77
2021/12/16 15:38:37;;;;;;;184.30;18.73;;;;;;;;;;5070301;28;20040;-82
2021/12/16 15:43:55;;;;;;;131.32;17.25;;;;;;;;;;5070540;28;20048;-76
2021/12/16 15:46:21;;;;;;;148.02;16.88;;;;;;;;;;5070444;28;20052;-82
2021/12/16 15:48:48;;;;;;;138.52;17.58;;;;;;;;;;5070135;28;20093;-82
2021/12/16 15:51:15;;;;;;;129.32;18.30;;;;;;;;;;5069566;28;20405;-82
2021/12/16 15:53:43;;;;;;;86.85;16.83;;;;;;;;;;5053935;28;20052;-82
2021/12/16 15:56:17;;;;;;;93.20;16.13;;;;;;;;;;5071170;28;20040;-82
2021/12/16 15:58:52;;;;;;;138.82;18.73;;;;;;;;;;5053741;28;20472;-82
2021/12/16 16:01:28;;;;;;;89.25;16.02;;;;;;;;;;5069904;28;20040;-76
2021/12/16 16:03:55;;;;;;;89.68;17.55;;;;;;;;;;5069994;28;20060;-76
2021/12/16 16:06:21;;;;;;;81.30;20.35;;;;;;;;;;5069729;28;20048;-76
2021/12/16 16:08:50;;;;;;;127.28;21.42;;;;;;;;;;5069997;28;20036;-76
2021/12/16 16:11:19;;;;;;;161.13;20.35;;;;;;;;;;5069228;28;20132;-76
2021/12/16 16:13:49;;;;;;;141.95;19.02;;;;;;;;;;5070107;28;20490;-82
2021/12/16 16:16:17;;;;;;;66.05;17.05;;;;;;;;;;5052666;28;20037;-76
2021/12/16 16:18:54;;;;;;;250.13;22.20;;;;;;;;;;5069450;28;20037;-76
2021/12/16 16:21:22;;;;;;;73.47;16.90;;;;;;;;;;5052184;28;20040;-82
2021/12/16 16:23:52;;;;;;;184.40;20.02;;;;;;;;;;5069596;28;20049;-82
2021/12/16 16:26:18;;;;;;;203.13;20.70;;;;;;;;;;5069620;28;20048;-81
2021/12/16 16:28:45;;;;;;;84.35;19.13;;;;;;;;;;5069529;28;20040;-82
2021/12/16 16:31:16;;;;;;;146.40;20.42;;;;;;;;;;5052478;28;20153;-82
2021/12/16 16:33:42;;;;;;;124.68;20.42;;;;;;;;;;5069495;28;20120;-76
2021/12/16 16:36:11;;;;;;;124.93;21.88;;;;;;;;;;5068818;28;20047;-77
2021/12/16 16:38:37;;;;;;;117.30;20.40;;;;;;;;;;5069340;28;20049;-77
2021/12/16 16:41:06;;;;;;;131.35;22.35;;;;;;;;;;5052500;28;20052;-76
2021/12/16 16:43:34;;;;;;;126.30;22.33;;;;;;;;;;5052059;28;20052;-82
2021/12/16 16:46:03;;;;;;;122.28;23.00;;;;;;;;;;5069502;28;20404;-82
2021/12/16 16:49:14;;;;;;;131.32;22.60;;;;;;;;;;5068958;28;20129;-82
2021/12/16 16:51:26;;;;;;;155.02;23.70;;;;;;;;;;5060256;28;20404;-82
2021/12/16 16:53:55;;;;;;;180.20;23.60;;;;;;;;;;5069166;28;20392;-82
2021/12/16 16:56:34;;;;;;;169.50;24.83;;;;;;;;;;5070081;28;20040;-82
2021/12/16 16:59:03;;;;;;;108.82;23.27;;;;;;;;;;5067823;28;20047;-82
2021/12/16 17:01:30;;;;;;;122.13;23.00;;;;;;;;;;5068350;28;20040;-82
2021/12/16 17:03:56;;;;;;;158.05;24.45;;;;;;;;;;5068692;28;20130;-82
2021/12/16 17:06:22;;;;;;;145.65;24.52;;;;;;;;;;5068664;28;20055;-82
2021/12/16 17:08:48;;;;;;;140.23;25.10;;;;;;;;;;5070389;28;20126;-82
2021/12/16 17:11:17;;;;;;;109.43;21.80;;;;;;;;;;5052129;28;20123;-82
2021/12/16 17:18:50;;;;;;;185.32;26.38;;;;;;;;;;5068589;28;20102;-77
2021/12/16 17:21:18;;;;;;;135.50;24.83;;;;;;;;;;5068809;28;20125;-77
2021/12/16 17:23:49;;;;;;;140.32;23.73;;;;;;;;;;5068047;28;20094;-77
2021/12/16 17:26:18;;;;;;;151.02;25.48;;;;;;;;;;5067950;28;20052;-77
2021/12/16 17:28:50;;;;;;;150.38;24.40;;;;;;;;;;5068569;28;20120;-76
2021/12/16 17:31:16;;;;;;;119.55;22.70;;;;;;;;;;5067897;28;20040;-76
2021/12/16 17:33:42;;;;;;;101.68;23.30;;;;;;;;;;5051908;28;20037;-77
2021/12/16 17:36:08;;;;;;;146.15;25.00;;;;;;;;;;5068176;28;20075;-76
2021/12/16 17:38:34;;;;;;;128.20;24.40;;;;;;;;;;5068849;28;20075;-76
2021/12/16 17:41:03;;;;;;;181.80;25.83;;;;;;;;;;5068311;28;20044;-76
2021/12/16 17:43:31;;;;;;;129.50;22.67;;;;;;;;;;5067980;28;20086;-77
2021/12/16 17:46:03;;;;;;;154.32;23.85;;;;;;;;;;5051643;28;20120;-77
2021/12/16 17:48:31;;;;;;;127.72;24.05;;;;;;;;;;5068274;28;20506;-82
2021/12/16 17:51:03;;;;;;;99.72;21.08;;;;;;;;;;5067516;28;20057;-82
2021/12/16 17:53:29;;;;;;;116.47;22.95;;;;;;;;;;5068527;28;20400;-82
2021/12/16 17:55:56;;;;;;;154.07;22.67;;;;;;;;;;5068338;28;20045;-82
2021/12/16 17:58:25;;;;;;;143.63;23.58;;;;;;;;;;5067886;28;20127;-82
2021/12/16 18:00:54;;;;;;;138.50;22.63;;;;;;;;;;5068286;28;20052;-77
2021/12/16 18:03:30;;;;;;;124.20;23.40;;;;;;;;;;5067999;28;20040;-77
2021/12/16 18:05:58;;;;;;;142.93;23.95;;;;;;;;;;5068228;28;20050;-77
2021/12/16 18:08:25;;;;;;;122.78;22.23;;;;;;;;;;5050875;28;20040;-77
2021/12/16 18:10:51;;;;;;;117.63;21.77;;;;;;;;;;5067720;28;20056;-81
2021/12/16 18:13:17;;;;;;;112.63;21.20;;;;;;;;;;5072033;28;20511;-81
2021/12/16 18:15:44;;;;;;;107.40;22.45;;;;;;;;;;5039069;28;20040;-82